sensor_id;sensor_type;location;lat;lon;timestamp;P1;durP1;ratioP1;P2;durP2;ratioP2
72437;SDS011;60444;43.534;-5.674;2023-02-12T00:01:32;25.13;;;13.47;;
72437;SDS011;60444;43.534;-5.674;2023-02-12T00:03:58;21.17;;;11.35;;
72437;SDS011;60444;43.534;-5.674;2023-02-12T00:06:24;24.30;;;12.95;;
72437;SDS011;60444;43.534;-5.674;2023-02-12T00:08:50;25.93;;;12.00;;
72437;SDS011;60444;43.534;-5.674;2023-02-12T00:11:18;27.35;;;13.05;;
72437;SDS011;60444;43.534;-5.674;2023-02-12T00:13:46;27.60;;;13.32;;
72437;SDS011;60444;43.534;-5.674;2023-02-12T00:16:13;23.17;;;11.03;;
72437;SDS011;60444;43.534;-5.674;2023-02-12T00:18:40;20.15;;;10.60;;
72437;SDS011;60444;43.534;-5.674;2023-02-12T00:21:06;27.45;;;13.65;;
72437;SDS011;60444;43.534;-5.674;2023-02-12T00:23:33;26.33;;;13.43;;
72437;SDS011;60444;43.534;-5.674;2023-02-12T00:25:59;24.45;;;11.75;;
72437;SDS011;60444;43.534;-5.674;2023-02-12T00:28:25;19.57;;;11.43;;
72437;SDS011;60444;43.534;-5.674;2023-02-12T00:30:51;20.00;;;9.80;;
72437;SDS011;60444;43.534;-5.674;2023-02-12T00:33:16;29.57;;;13.30;;
72437;SDS011;60444;43.534;-5.674;2023-02-12T00:35:42;25.25;;;11.73;;
72437;SDS011;60444;43.534;-5.674;2023-02-12T00:38:08;26.42;;;13.80;;
72437;SDS011;60444;43.534;-5.674;2023-02-12T00:40:34;28.03;;;13.83;;
72437;SDS011;60444;43.534;-5.674;2023-02-12T00:42:59;30.47;;;13.53;;
72437;SDS011;60444;43.534;-5.674;2023-02-12T00:45:25;26.27;;;12.73;;
72437;SDS011;60444;43.534;-5.674;2023-02-12T00:47:50;25.50;;;12.93;;
72437;SDS011;60444;43.534;-5.674;2023-02-12T00:50:16;24.53;;;11.73;;
72437;SDS011;60444;43.534;-5.674;2023-02-12T00:52:41;26.63;;;12.87;;
72437;SDS011;60444;43.534;-5.674;2023-02-12T00:55:07;27.42;;;13.77;;
72437;SDS011;60444;43.534;-5.674;2023-02-12T00:57:33;25.53;;;11.20;;
72437;SDS011;60444;43.534;-5.674;2023-02-12T00:59:58;28.17;;;13.90;;
72437;SDS011;60444;43.534;-5.674;2023-02-12T01:02:24;24.63;;;12.83;;
72437;SDS011;60444;43.534;-5.674;2023-02-12T01:04:49;24.50;;;13.30;;
72437;SDS011;60444;43.534;-5.674;2023-02-12T01:07:15;22.13;;;10.57;;
72437;SDS011;60444;43.534;-5.674;2023-02-12T01:09:40;29.40;;;12.80;;
72437;SDS011;60444;43.534;-5.674;2023-02-12T01:12:06;16.63;;;9.57;;
72437;SDS011;60444;43.534;-5.674;2023-02-12T01:14:32;24.02;;;11.45;;
72437;SDS011;60444;43.534;-5.674;2023-02-12T01:16:57;24.30;;;12.30;;
72437;SDS011;60444;43.534;-5.674;2023-02-12T01:19:23;28.30;;;13.37;;
72437;SDS011;60444;43.534;-5.674;2023-02-12T01:21:48;21.50;;;10.18;;
72437;SDS011;60444;43.534;-5.674;2023-02-12T01:24:14;17.30;;;10.03;;
72437;SDS011;60444;43.534;-5.674;2023-02-12T01:26:39;24.83;;;10.67;;
72437;SDS011;60444;43.534;-5.674;2023-02-12T01:29:05;25.17;;;12.82;;
72437;SDS011;60444;43.534;-5.674;2023-02-12T01:31:33;27.10;;;12.63;;
72437;SDS011;60444;43.534;-5.674;2023-02-12T01:34:02;21.95;;;10.70;;
72437;SDS011;60444;43.534;-5.674;2023-02-12T01:36:29;18.40;;;8.98;;
72437;SDS011;60444;43.534;-5.674;2023-02-12T01:38:56;19.73;;;9.38;;
72437;SDS011;60444;43.534;-5.674;2023-02-12T01:41:26;17.35;;;8.45;;
72437;SDS011;60444;43.534;-5.674;2023-02-12T01:44:11;26.77;;;10.43;;
72437;SDS011;60444;43.534;-5.674;2023-02-12T01:46:39;19.15;;;9.48;;
72437;SDS011;60444;43.534;-5.674;2023-02-12T01:49:07;23.15;;;11.77;;
72437;SDS011;60444;43.534;-5.674;2023-02-12T01:51:46;24.17;;;11.35;;
72437;SDS011;60444;43.534;-5.674;2023-02-12T01:54:16;22.88;;;10.82;;
72437;SDS011;60444;43.534;-5.674;2023-02-12T01:56:44;22.40;;;10.07;;
72437;SDS011;60444;43.534;-5.674;2023-02-12T01:59:09;16.17;;;7.85;;
72437;SDS011;60444;43.534;-5.674;2023-02-12T02:01:35;25.33;;;12.05;;
72437;SDS011;60444;43.534;-5.674;2023-02-12T02:04:03;21.20;;;10.77;;
72437;SDS011;60444;43.534;-5.674;2023-02-12T02:06:37;18.63;;;10.50;;
72437;SDS011;60444;43.534;-5.674;2023-02-12T02:09:09;22.52;;;10.90;;
72437;SDS011;60444;43.534;-5.674;2023-02-12T02:11:35;22.63;;;11.63;;
72437;SDS011;60444;43.534;-5.674;2023-02-12T02:14:19;25.67;;;12.00;;
72437;SDS011;60444;43.534;-5.674;2023-02-12T02:17:06;21.50;;;10.60;;
72437;SDS011;60444;43.534;-5.674;2023-02-12T02:30:47;21.77;;;9.95;;
72437;SDS011;60444;43.534;-5.674;2023-02-12T02:38:47;22.13;;;11.10;;
72437;SDS011;60444;43.534;-5.674;2023-02-12T02:41:23;20.17;;;9.98;;
72437;SDS011;60444;43.534;-5.674;2023-02-12T02:43:55;21.58;;;9.93;;
72437;SDS011;60444;43.534;-5.674;2023-02-12T02:46:25;19.92;;;9.23;;
72437;SDS011;60444;43.534;-5.674;2023-02-12T02:49:03;21.08;;;9.93;;
72437;SDS011;60444;43.534;-5.674;2023-02-12T02:51:32;20.40;;;11.00;;
72437;SDS011;60444;43.534;-5.674;2023-02-12T02:54:08;21.10;;;9.65;;
72437;SDS011;60444;43.534;-5.674;2023-02-12T02:56:38;18.40;;;9.32;;
72437;SDS011;60444;43.534;-5.674;2023-02-12T02:59:08;21.20;;;10.05;;
72437;SDS011;60444;43.534;-5.674;2023-02-12T03:01:47;21.70;;;9.35;;
72437;SDS011;60444;43.534;-5.674;2023-02-12T03:04:20;19.93;;;8.87;;
72437;SDS011;60444;43.534;-5.674;2023-02-12T03:07:02;21.05;;;9.10;;
72437;SDS011;60444;43.534;-5.674;2023-02-12T03:12:37;16.75;;;9.18;;
72437;SDS011;60444;43.534;-5.674;2023-02-12T03:17:44;18.43;;;8.97;;
72437;SDS011;60444;43.534;-5.674;2023-02-12T03:22:51;23.20;;;9.45;;
72437;SDS011;60444;43.534;-5.674;2023-02-12T03:25:24;15.20;;;8.45;;
72437;SDS011;60444;43.534;-5.674;2023-02-12T03:28:05;18.05;;;9.00;;
72437;SDS011;60444;43.534;-5.674;2023-02-12T03:33:44;21.17;;;8.90;;
72437;SDS011;60444;43.534;-5.674;2023-02-12T03:39:08;19.45;;;9.10;;
72437;SDS011;60444;43.534;-5.674;2023-02-12T03:41:46;18.35;;;9.60;;
72437;SDS011;60444;43.534;-5.674;2023-02-12T03:49:21;26.53;;;10.23;;
72437;SDS011;60444;43.534;-5.674;2023-02-12T03:51:55;21.13;;;9.65;;
72437;SDS011;60444;43.534;-5.674;2023-02-12T03:54:22;18.08;;;9.60;;
72437;SDS011;60444;43.534;-5.674;2023-02-12T03:59:29;16.00;;;8.82;;
72437;SDS011;60444;43.534;-5.674;2023-02-12T04:01:56;17.53;;;9.07;;
72437;SDS011;60444;43.534;-5.674;2023-02-12T04:04:23;17.55;;;9.05;;
72437;SDS011;60444;43.534;-5.674;2023-02-12T04:06:50;18.27;;;8.43;;
72437;SDS011;60444;43.534;-5.674;2023-02-12T04:09:17;22.40;;;9.88;;
72437;SDS011;60444;43.534;-5.674;2023-02-12T04:26:08;14.38;;;7.13;;
72437;SDS011;60444;43.534;-5.674;2023-02-12T04:28:45;16.27;;;7.78;;
72437;SDS011;60444;43.534;-5.674;2023-02-12T04:31:28;14.40;;;8.03;;
72437;SDS011;60444;43.534;-5.674;2023-02-12T04:34:06;14.15;;;7.28;;
72437;SDS011;60444;43.534;-5.674;2023-02-12T04:36:33;15.45;;;7.00;;
72437;SDS011;60444;43.534;-5.674;2023-02-12T04:39:08;16.48;;;7.72;;
72437;SDS011;60444;43.534;-5.674;2023-02-12T04:41:37;14.60;;;8.15;;
72437;SDS011;60444;43.534;-5.674;2023-02-12T04:46:50;15.35;;;8.15;;
72437;SDS011;60444;43.534;-5.674;2023-02-12T04:49:17;17.27;;;7.88;;
72437;SDS011;60444;43.534;-5.674;2023-02-12T04:51:44;15.00;;;7.50;;
72437;SDS011;60444;43.534;-5.674;2023-02-12T04:54:10;15.77;;;8.15;;
72437;SDS011;60444;43.534;-5.674;2023-02-12T04:56:36;13.90;;;7.73;;
72437;SDS011;60444;43.534;-5.674;2023-02-12T04:59:01;13.90;;;7.13;;
72437;SDS011;60444;43.534;-5.674;2023-02-12T05:01:27;14.10;;;6.40;;
72437;SDS011;60444;43.534;-5.674;2023-02-12T05:03:52;14.87;;;7.70;;
72437;SDS011;60444;43.534;-5.674;2023-02-12T05:06:18;19.30;;;7.88;;
72437;SDS011;60444;43.534;-5.674;2023-02-12T05:08:43;16.83;;;7.67;;
72437;SDS011;60444;43.534;-5.674;2023-02-12T05:11:09;12.53;;;6.80;;
72437;SDS011;60444;43.534;-5.674;2023-02-12T05:13:35;17.83;;;7.32;;
72437;SDS011;60444;43.534;-5.674;2023-02-12T05:16:05;18.63;;;8.15;;
72437;SDS011;60444;43.534;-5.674;2023-02-12T05:18:32;13.73;;;6.53;;
72437;SDS011;60444;43.534;-5.674;2023-02-12T05:20:59;18.37;;;8.20;;
72437;SDS011;60444;43.534;-5.674;2023-02-12T05:23:30;14.07;;;6.38;;
72437;SDS011;60444;43.534;-5.674;2023-02-12T05:25:58;17.73;;;6.72;;
72437;SDS011;60444;43.534;-5.674;2023-02-12T05:28:25;13.60;;;5.85;;
72437;SDS011;60444;43.534;-5.674;2023-02-12T05:30:51;14.13;;;6.73;;
72437;SDS011;60444;43.534;-5.674;2023-02-12T05:33:16;16.10;;;6.83;;
72437;SDS011;60444;43.534;-5.674;2023-02-12T05:35:42;17.13;;;7.43;;
72437;SDS011;60444;43.534;-5.674;2023-02-12T05:38:07;14.13;;;6.40;;
72437;SDS011;60444;43.534;-5.674;2023-02-12T05:40:33;15.13;;;6.57;;
72437;SDS011;60444;43.534;-5.674;2023-02-12T05:42:59;13.98;;;6.10;;
72437;SDS011;60444;43.534;-5.674;2023-02-12T05:45:26;15.18;;;6.25;;
72437;SDS011;60444;43.534;-5.674;2023-02-12T05:47:53;15.98;;;6.20;;
72437;SDS011;60444;43.534;-5.674;2023-02-12T05:50:19;13.85;;;6.28;;
72437;SDS011;60444;43.534;-5.674;2023-02-12T05:52:45;13.03;;;5.90;;
72437;SDS011;60444;43.534;-5.674;2023-02-12T05:55:11;11.77;;;6.10;;
72437;SDS011;60444;43.534;-5.674;2023-02-12T05:57:36;12.82;;;5.80;;
72437;SDS011;60444;43.534;-5.674;2023-02-12T06:00:03;13.80;;;5.77;;
72437;SDS011;60444;43.534;-5.674;2023-02-12T06:02:32;15.13;;;5.78;;
72437;SDS011;60444;43.534;-5.674;2023-02-12T06:05:00;13.32;;;6.13;;
72437;SDS011;60444;43.534;-5.674;2023-02-12T06:07:25;14.03;;;6.17;;
72437;SDS011;60444;43.534;-5.674;2023-02-12T06:09:51;13.13;;;5.65;;
72437;SDS011;60444;43.534;-5.674;2023-02-12T06:12:18;12.80;;;6.27;;
72437;SDS011;60444;43.534;-5.674;2023-02-12T06:14:44;12.48;;;5.72;;
72437;SDS011;60444;43.534;-5.674;2023-02-12T06:17:10;14.30;;;6.37;;
72437;SDS011;60444;43.534;-5.674;2023-02-12T06:19:35;11.10;;;5.67;;
72437;SDS011;60444;43.534;-5.674;2023-02-12T06:22:01;11.73;;;5.50;;
72437;SDS011;60444;43.534;-5.674;2023-02-12T06:24:27;13.43;;;5.97;;
72437;SDS011;60444;43.534;-5.674;2023-02-12T06:26:52;14.57;;;6.47;;
72437;SDS011;60444;43.534;-5.674;2023-02-12T06:29:18;13.27;;;6.13;;
72437;SDS011;60444;43.534;-5.674;2023-02-12T06:31:44;10.38;;;5.72;;
72437;SDS011;60444;43.534;-5.674;2023-02-12T06:34:11;12.95;;;5.78;;
72437;SDS011;60444;43.534;-5.674;2023-02-12T06:36:38;12.47;;;5.23;;
72437;SDS011;60444;43.534;-5.674;2023-02-12T06:39:09;12.52;;;5.00;;
72437;SDS011;60444;43.534;-5.674;2023-02-12T06:41:35;11.57;;;6.38;;
72437;SDS011;60444;43.534;-5.674;2023-02-12T06:44:02;14.45;;;7.20;;
72437;SDS011;60444;43.534;-5.674;2023-02-12T06:46:28;12.37;;;6.73;;
72437;SDS011;60444;43.534;-5.674;2023-02-12T06:48:54;13.15;;;6.60;;
72437;SDS011;60444;43.534;-5.674;2023-02-12T06:51:21;12.63;;;6.60;;
72437;SDS011;60444;43.534;-5.674;2023-02-12T06:53:48;12.13;;;6.28;;
72437;SDS011;60444;43.534;-5.674;2023-02-12T06:56:15;13.73;;;5.70;;
72437;SDS011;60444;43.534;-5.674;2023-02-12T06:58:42;13.52;;;6.60;;
72437;SDS011;60444;43.534;-5.674;2023-02-12T07:01:10;13.93;;;6.60;;
72437;SDS011;60444;43.534;-5.674;2023-02-12T07:03:41;11.20;;;5.85;;
72437;SDS011;60444;43.534;-5.674;2023-02-12T07:06:14;17.05;;;7.90;;
72437;SDS011;60444;43.534;-5.674;2023-02-12T07:08:40;12.87;;;6.90;;
72437;SDS011;60444;43.534;-5.674;2023-02-12T07:11:05;16.10;;;7.13;;
72437;SDS011;60444;43.534;-5.674;2023-02-12T07:13:32;12.50;;;6.80;;
72437;SDS011;60444;43.534;-5.674;2023-02-12T07:16:05;12.95;;;5.57;;
72437;SDS011;60444;43.534;-5.674;2023-02-12T07:18:35;13.48;;;5.72;;
72437;SDS011;60444;43.534;-5.674;2023-02-12T07:21:02;12.60;;;5.70;;
72437;SDS011;60444;43.534;-5.674;2023-02-12T07:23:29;12.18;;;4.72;;
72437;SDS011;60444;43.534;-5.674;2023-02-12T07:25:58;11.30;;;5.87;;
72437;SDS011;60444;43.534;-5.674;2023-02-12T07:28:26;12.37;;;6.07;;
72437;SDS011;60444;43.534;-5.674;2023-02-12T07:30:52;12.82;;;5.35;;
72437;SDS011;60444;43.534;-5.674;2023-02-12T07:33:18;13.10;;;5.70;;
72437;SDS011;60444;43.534;-5.674;2023-02-12T07:35:44;14.63;;;5.20;;
72437;SDS011;60444;43.534;-5.674;2023-02-12T07:38:10;11.48;;;4.90;;
72437;SDS011;60444;43.534;-5.674;2023-02-12T07:40:36;13.43;;;4.93;;
72437;SDS011;60444;43.534;-5.674;2023-02-12T07:43:02;12.63;;;4.87;;
72437;SDS011;60444;43.534;-5.674;2023-02-12T07:45:29;11.57;;;5.25;;
72437;SDS011;60444;43.534;-5.674;2023-02-12T07:47:54;13.13;;;5.73;;
72437;SDS011;60444;43.534;-5.674;2023-02-12T07:50:20;12.13;;;6.05;;
72437;SDS011;60444;43.534;-5.674;2023-02-12T07:52:47;12.23;;;5.50;;
72437;SDS011;60444;43.534;-5.674;2023-02-12T07:55:14;12.77;;;5.75;;
72437;SDS011;60444;43.534;-5.674;2023-02-12T07:57:39;11.90;;;5.27;;
72437;SDS011;60444;43.534;-5.674;2023-02-12T08:00:05;11.87;;;4.80;;
72437;SDS011;60444;43.534;-5.674;2023-02-12T08:02:31;11.90;;;6.00;;
72437;SDS011;60444;43.534;-5.674;2023-02-12T08:04:56;13.27;;;5.57;;
72437;SDS011;60444;43.534;-5.674;2023-02-12T08:07:22;13.13;;;6.30;;
72437;SDS011;60444;43.534;-5.674;2023-02-12T08:09:48;12.00;;;5.30;;
72437;SDS011;60444;43.534;-5.674;2023-02-12T08:12:15;11.90;;;5.30;;
72437;SDS011;60444;43.534;-5.674;2023-02-12T08:14:41;12.40;;;5.65;;
72437;SDS011;60444;43.534;-5.674;2023-02-12T08:17:06;13.13;;;5.90;;
72437;SDS011;60444;43.534;-5.674;2023-02-12T08:19:32;15.82;;;6.78;;
72437;SDS011;60444;43.534;-5.674;2023-02-12T08:21:58;14.00;;;7.07;;
72437;SDS011;60444;43.534;-5.674;2023-02-12T08:24:26;10.00;;;4.97;;
72437;SDS011;60444;43.534;-5.674;2023-02-12T08:26:51;14.50;;;6.33;;
72437;SDS011;60444;43.534;-5.674;2023-02-12T08:29:19;11.43;;;5.70;;
72437;SDS011;60444;43.534;-5.674;2023-02-12T08:31:47;13.75;;;7.05;;
72437;SDS011;60444;43.534;-5.674;2023-02-12T08:34:18;14.27;;;6.20;;
72437;SDS011;60444;43.534;-5.674;2023-02-12T08:36:45;12.85;;;5.68;;
72437;SDS011;60444;43.534;-5.674;2023-02-12T08:39:12;11.68;;;6.20;;
72437;SDS011;60444;43.534;-5.674;2023-02-12T08:41:38;11.85;;;4.90;;
72437;SDS011;60444;43.534;-5.674;2023-02-12T08:44:06;11.75;;;5.00;;
72437;SDS011;60444;43.534;-5.674;2023-02-12T08:46:36;12.53;;;5.07;;
72437;SDS011;60444;43.534;-5.674;2023-02-12T08:49:08;10.88;;;4.68;;
72437;SDS011;60444;43.534;-5.674;2023-02-12T08:51:37;10.35;;;4.93;;
72437;SDS011;60444;43.534;-5.674;2023-02-12T08:54:04;11.07;;;4.78;;
72437;SDS011;60444;43.534;-5.674;2023-02-12T08:56:31;12.80;;;4.70;;
72437;SDS011;60444;43.534;-5.674;2023-02-12T08:58:58;9.90;;;4.73;;
72437;SDS011;60444;43.534;-5.674;2023-02-12T09:01:26;10.57;;;4.15;;
72437;SDS011;60444;43.534;-5.674;2023-02-12T09:03:53;10.27;;;5.13;;
72437;SDS011;60444;43.534;-5.674;2023-02-12T09:06:20;10.93;;;4.25;;
72437;SDS011;60444;43.534;-5.674;2023-02-12T09:08:47;9.73;;;4.60;;
72437;SDS011;60444;43.534;-5.674;2023-02-12T09:11:15;13.13;;;4.83;;
72437;SDS011;60444;43.534;-5.674;2023-02-12T09:13:42;11.82;;;4.65;;
72437;SDS011;60444;43.534;-5.674;2023-02-12T09:16:09;11.00;;;5.63;;
72437;SDS011;60444;43.534;-5.674;2023-02-12T09:18:35;12.80;;;4.93;;
72437;SDS011;60444;43.534;-5.674;2023-02-12T09:21:03;10.48;;;4.22;;
72437;SDS011;60444;43.534;-5.674;2023-02-12T09:23:40;10.77;;;4.37;;
72437;SDS011;60444;43.534;-5.674;2023-02-12T09:26:06;11.43;;;4.57;;
72437;SDS011;60444;43.534;-5.674;2023-02-12T09:28:33;9.43;;;4.97;;
72437;SDS011;60444;43.534;-5.674;2023-02-12T09:31:33;9.93;;;5.10;;
72437;SDS011;60444;43.534;-5.674;2023-02-12T09:34:03;11.10;;;4.70;;
72437;SDS011;60444;43.534;-5.674;2023-02-12T09:36:30;9.30;;;4.63;;
72437;SDS011;60444;43.534;-5.674;2023-02-12T09:38:56;11.63;;;4.72;;
72437;SDS011;60444;43.534;-5.674;2023-02-12T09:49:18;9.88;;;4.80;;
72437;SDS011;60444;43.534;-5.674;2023-02-12T09:51:55;9.40;;;4.10;;
72437;SDS011;60444;43.534;-5.674;2023-02-12T09:54:24;11.07;;;4.75;;
72437;SDS011;60444;43.534;-5.674;2023-02-12T09:56:55;8.67;;;3.40;;
72437;SDS011;60444;43.534;-5.674;2023-02-12T09:59:32;9.38;;;3.83;;
72437;SDS011;60444;43.534;-5.674;2023-02-12T10:02:00;9.38;;;3.92;;
72437;SDS011;60444;43.534;-5.674;2023-02-12T10:04:26;8.53;;;4.03;;
72437;SDS011;60444;43.534;-5.674;2023-02-12T10:07:03;11.55;;;4.15;;
72437;SDS011;60444;43.534;-5.674;2023-02-12T10:25:56;9.27;;;3.50;;
72437;SDS011;60444;43.534;-5.674;2023-02-12T10:31:29;8.83;;;3.40;;
72437;SDS011;60444;43.534;-5.674;2023-02-12T10:33:59;7.97;;;3.38;;
72437;SDS011;60444;43.534;-5.674;2023-02-12T10:36:43;8.23;;;4.05;;
72437;SDS011;60444;43.534;-5.674;2023-02-12T10:41:38;10.40;;;4.65;;
72437;SDS011;60444;43.534;-5.674;2023-02-12T10:44:24;10.33;;;4.77;;
72437;SDS011;60444;43.534;-5.674;2023-02-12T10:46:50;8.65;;;3.83;;
72437;SDS011;60444;43.534;-5.674;2023-02-12T10:49:17;9.90;;;4.03;;
72437;SDS011;60444;43.534;-5.674;2023-02-12T10:54:38;8.43;;;3.70;;
72437;SDS011;60444;43.534;-5.674;2023-02-12T10:57:07;10.30;;;4.28;;
72437;SDS011;60444;43.534;-5.674;2023-02-12T10:59:36;7.93;;;3.38;;
72437;SDS011;60444;43.534;-5.674;2023-02-12T11:02:02;8.52;;;3.50;;
72437;SDS011;60444;43.534;-5.674;2023-02-12T11:04:42;8.10;;;3.23;;
72437;SDS011;60444;43.534;-5.674;2023-02-12T11:07:07;10.35;;;3.88;;
72437;SDS011;60444;43.534;-5.674;2023-02-12T11:09:36;9.82;;;3.90;;
72437;SDS011;60444;43.534;-5.674;2023-02-12T11:12:22;8.20;;;3.37;;
72437;SDS011;60444;43.534;-5.674;2023-02-12T11:14:56;9.88;;;3.97;;
72437;SDS011;60444;43.534;-5.674;2023-02-12T11:22:49;9.82;;;4.07;;
72437;SDS011;60444;43.534;-5.674;2023-02-12T11:25:17;8.87;;;3.53;;
72437;SDS011;60444;43.534;-5.674;2023-02-12T11:27:43;10.15;;;3.30;;
72437;SDS011;60444;43.534;-5.674;2023-02-12T11:30:14;7.90;;;3.35;;
72437;SDS011;60444;43.534;-5.674;2023-02-12T11:32:44;9.50;;;4.25;;
72437;SDS011;60444;43.534;-5.674;2023-02-12T11:35:18;8.30;;;3.20;;
72437;SDS011;60444;43.534;-5.674;2023-02-12T11:37:51;9.07;;;4.13;;
72437;SDS011;60444;43.534;-5.674;2023-02-12T11:40:23;7.28;;;3.40;;
72437;SDS011;60444;43.534;-5.674;2023-02-12T11:42:56;8.88;;;3.22;;
72437;SDS011;60444;43.534;-5.674;2023-02-12T11:45:30;8.57;;;3.05;;
72437;SDS011;60444;43.534;-5.674;2023-02-12T11:47:59;8.83;;;2.90;;
72437;SDS011;60444;43.534;-5.674;2023-02-12T11:50:29;9.85;;;4.03;;
72437;SDS011;60444;43.534;-5.674;2023-02-12T11:52:58;7.80;;;2.97;;
72437;SDS011;60444;43.534;-5.674;2023-02-12T11:55:28;6.97;;;3.15;;
72437;SDS011;60444;43.534;-5.674;2023-02-12T11:58:12;8.45;;;2.90;;
72437;SDS011;60444;43.534;-5.674;2023-02-12T12:00:45;7.13;;;2.77;;
72437;SDS011;60444;43.534;-5.674;2023-02-12T12:05:57;9.43;;;4.20;;
72437;SDS011;60444;43.534;-5.674;2023-02-12T12:08:43;7.38;;;2.53;;
72437;SDS011;60444;43.534;-5.674;2023-02-12T12:11:16;8.00;;;2.38;;
72437;SDS011;60444;43.534;-5.674;2023-02-12T12:13:48;7.57;;;2.83;;
72437;SDS011;60444;43.534;-5.674;2023-02-12T12:16:23;7.53;;;3.17;;
72437;SDS011;60444;43.534;-5.674;2023-02-12T12:19:15;7.90;;;2.85;;
72437;SDS011;60444;43.534;-5.674;2023-02-12T12:24:40;6.20;;;2.45;;
72437;SDS011;60444;43.534;-5.674;2023-02-12T12:38:39;9.63;;;3.17;;
72437;SDS011;60444;43.534;-5.674;2023-02-12T12:41:26;8.85;;;3.10;;
72437;SDS011;60444;43.534;-5.674;2023-02-12T12:44:23;9.88;;;3.38;;
72437;SDS011;60444;43.534;-5.674;2023-02-12T12:52:40;13.13;;;3.95;;
72437;SDS011;60444;43.534;-5.674;2023-02-12T13:01:04;12.03;;;4.07;;
72437;SDS011;60444;43.534;-5.674;2023-02-12T13:03:58;9.70;;;3.67;;
72437;SDS011;60444;43.534;-5.674;2023-02-12T13:07:05;11.80;;;4.82;;
72437;SDS011;60444;43.534;-5.674;2023-02-12T13:22:39;12.50;;;3.73;;
72437;SDS011;60444;43.534;-5.674;2023-02-12T13:25:17;11.07;;;4.20;;
72437;SDS011;60444;43.534;-5.674;2023-02-12T13:27:45;10.48;;;3.25;;
72437;SDS011;60444;43.534;-5.674;2023-02-12T13:32:46;8.43;;;2.83;;
72437;SDS011;60444;43.534;-5.674;2023-02-12T13:35:20;9.38;;;3.25;;
72437;SDS011;60444;43.534;-5.674;2023-02-12T13:37:48;10.97;;;3.30;;
72437;SDS011;60444;43.534;-5.674;2023-02-12T13:40:21;9.02;;;2.80;;
72437;SDS011;60444;43.534;-5.674;2023-02-12T13:45:23;7.13;;;2.53;;
72437;SDS011;60444;43.534;-5.674;2023-02-12T13:50:39;10.45;;;2.60;;
72437;SDS011;60444;43.534;-5.674;2023-02-12T13:53:15;9.65;;;2.22;;
72437;SDS011;60444;43.534;-5.674;2023-02-12T13:58:54;8.65;;;2.58;;
72437;SDS011;60444;43.534;-5.674;2023-02-12T14:01:37;10.35;;;3.22;;
72437;SDS011;60444;43.534;-5.674;2023-02-12T14:04:13;7.65;;;2.53;;
72437;SDS011;60444;43.534;-5.674;2023-02-12T14:09:41;6.70;;;2.17;;
72437;SDS011;60444;43.534;-5.674;2023-02-12T14:12:16;9.18;;;2.28;;
72437;SDS011;60444;43.534;-5.674;2023-02-12T14:30:27;6.47;;;2.47;;
72437;SDS011;60444;43.534;-5.674;2023-02-12T14:35:42;7.53;;;1.88;;
72437;SDS011;60444;43.534;-5.674;2023-02-12T14:40:47;5.40;;;2.13;;
72437;SDS011;60444;43.534;-5.674;2023-02-12T14:43:33;7.97;;;2.95;;
72437;SDS011;60444;43.534;-5.674;2023-02-12T14:46:50;7.15;;;2.25;;
72437;SDS011;60444;43.534;-5.674;2023-02-12T14:52:02;8.23;;;2.92;;
72437;SDS011;60444;43.534;-5.674;2023-02-12T14:57:06;8.63;;;2.45;;
72437;SDS011;60444;43.534;-5.674;2023-02-12T14:59:39;6.72;;;2.55;;
72437;SDS011;60444;43.534;-5.674;2023-02-12T15:02:12;8.10;;;2.38;;
72437;SDS011;60444;43.534;-5.674;2023-02-12T15:04:46;8.60;;;2.55;;
72437;SDS011;60444;43.534;-5.674;2023-02-12T15:07:13;7.30;;;2.80;;
72437;SDS011;60444;43.534;-5.674;2023-02-12T15:12:31;6.78;;;2.40;;
72437;SDS011;60444;43.534;-5.674;2023-02-12T15:17:53;7.72;;;2.83;;
72437;SDS011;60444;43.534;-5.674;2023-02-12T15:20:24;7.97;;;2.70;;
72437;SDS011;60444;43.534;-5.674;2023-02-12T15:22:56;7.75;;;2.42;;
72437;SDS011;60444;43.534;-5.674;2023-02-12T15:25:31;8.98;;;2.58;;
72437;SDS011;60444;43.534;-5.674;2023-02-12T15:28:05;7.83;;;2.40;;
72437;SDS011;60444;43.534;-5.674;2023-02-12T15:30:44;5.60;;;2.30;;
72437;SDS011;60444;43.534;-5.674;2023-02-12T15:33:15;7.30;;;2.25;;
72437;SDS011;60444;43.534;-5.674;2023-02-12T15:35:48;7.63;;;2.78;;
72437;SDS011;60444;43.534;-5.674;2023-02-12T15:38:18;8.50;;;2.63;;
72437;SDS011;60444;43.534;-5.674;2023-02-12T15:40:53;9.20;;;2.65;;
72437;SDS011;60444;43.534;-5.674;2023-02-12T15:43:20;7.00;;;2.58;;
72437;SDS011;60444;43.534;-5.674;2023-02-12T15:45:49;11.73;;;3.33;;
72437;SDS011;60444;43.534;-5.674;2023-02-12T15:48:20;8.20;;;2.78;;
72437;SDS011;60444;43.534;-5.674;2023-02-12T15:50:49;11.48;;;3.55;;
72437;SDS011;60444;43.534;-5.674;2023-02-12T15:53:44;8.90;;;2.60;;
72437;SDS011;60444;43.534;-5.674;2023-02-12T15:56:14;6.63;;;2.33;;
72437;SDS011;60444;43.534;-5.674;2023-02-12T15:58:51;6.20;;;2.38;;
72437;SDS011;60444;43.534;-5.674;2023-02-12T16:01:19;6.32;;;2.50;;
72437;SDS011;60444;43.534;-5.674;2023-02-12T16:03:54;6.87;;;2.77;;
72437;SDS011;60444;43.534;-5.674;2023-02-12T16:06:22;7.47;;;2.60;;
72437;SDS011;60444;43.534;-5.674;2023-02-12T16:08:53;6.97;;;2.53;;
72437;SDS011;60444;43.534;-5.674;2023-02-12T16:11:32;6.47;;;2.22;;
72437;SDS011;60444;43.534;-5.674;2023-02-12T16:13:59;7.05;;;2.63;;
72437;SDS011;60444;43.534;-5.674;2023-02-12T16:16:49;6.97;;;2.40;;
72437;SDS011;60444;43.534;-5.674;2023-02-12T16:19:19;8.35;;;2.80;;
72437;SDS011;60444;43.534;-5.674;2023-02-12T16:24:34;7.57;;;2.50;;
72437;SDS011;60444;43.534;-5.674;2023-02-12T16:29:49;8.43;;;2.33;;
72437;SDS011;60444;43.534;-5.674;2023-02-12T16:32:33;7.43;;;2.22;;
72437;SDS011;60444;43.534;-5.674;2023-02-12T16:48:33;9.25;;;3.13;;
72437;SDS011;60444;43.534;-5.674;2023-02-12T16:50:54;9.65;;;2.88;;
72437;SDS011;60444;43.534;-5.674;2023-02-12T16:55:58;6.13;;;2.67;;
72437;SDS011;60444;43.534;-5.674;2023-02-12T16:58:24;7.90;;;2.75;;
72437;SDS011;60444;43.534;-5.674;2023-02-12T17:00:51;9.73;;;3.00;;
72437;SDS011;60444;43.534;-5.674;2023-02-12T17:03:17;8.98;;;3.67;;
72437;SDS011;60444;43.534;-5.674;2023-02-12T17:05:43;11.87;;;3.43;;
72437;SDS011;60444;43.534;-5.674;2023-02-12T17:08:13;9.25;;;4.10;;
72437;SDS011;60444;43.534;-5.674;2023-02-12T17:10:41;11.48;;;4.38;;
72437;SDS011;60444;43.534;-5.674;2023-02-12T17:13:06;14.23;;;4.90;;
72437;SDS011;60444;43.534;-5.674;2023-02-12T17:15:34;12.52;;;4.72;;
72437;SDS011;60444;43.534;-5.674;2023-02-12T17:18:06;15.70;;;4.53;;
72437;SDS011;60444;43.534;-5.674;2023-02-12T17:20:32;13.20;;;4.28;;
72437;SDS011;60444;43.534;-5.674;2023-02-12T17:22:58;11.37;;;4.60;;
72437;SDS011;60444;43.534;-5.674;2023-02-12T17:25:25;14.70;;;5.65;;
72437;SDS011;60444;43.534;-5.674;2023-02-12T17:27:50;17.10;;;5.17;;
72437;SDS011;60444;43.534;-5.674;2023-02-12T17:30:17;11.93;;;4.30;;
72437;SDS011;60444;43.534;-5.674;2023-02-12T17:32:44;14.90;;;4.43;;
72437;SDS011;60444;43.534;-5.674;2023-02-12T17:35:10;14.18;;;5.40;;
72437;SDS011;60444;43.534;-5.674;2023-02-12T17:37:36;13.20;;;4.93;;
72437;SDS011;60444;43.534;-5.674;2023-02-12T17:40:01;11.32;;;4.00;;
72437;SDS011;60444;43.534;-5.674;2023-02-12T17:42:27;11.50;;;4.50;;
72437;SDS011;60444;43.534;-5.674;2023-02-12T17:44:53;15.02;;;4.47;;
72437;SDS011;60444;43.534;-5.674;2023-02-12T17:47:19;13.90;;;4.17;;
72437;SDS011;60444;43.534;-5.674;2023-02-12T17:49:44;14.48;;;4.25;;
72437;SDS011;60444;43.534;-5.674;2023-02-12T17:52:10;13.53;;;4.30;;
72437;SDS011;60444;43.534;-5.674;2023-02-12T17:54:35;16.87;;;4.33;;
72437;SDS011;60444;43.534;-5.674;2023-02-12T17:57:01;16.33;;;4.53;;
72437;SDS011;60444;43.534;-5.674;2023-02-12T17:59:27;16.37;;;4.37;;
72437;SDS011;60444;43.534;-5.674;2023-02-12T18:01:53;13.05;;;4.50;;